Time;durP1;ratioP1;P1;durP2;ratioP2;P2;SDS_P1;SDS_P2;PMS_P1;PMS_P2;Temp;Humidity;BMP_temperature;BMP_pressure;BME280_temperature;BME280_humidity;BME280_pressure;Samples;Min_cycle;Max_cycle;Signal;HPM_P1;HPM_P2
2022/11/14 00:01:11;;;;;;;41.72;20.15;;;;;;;3.71;100.00;98963.19;2600803;28;20216;-82
2022/11/14 00:02:27;;;;;;;43.72;19.25;;;;;;;3.65;100.00;98955.41;2599785;28;20415;-82
2022/11/14 00:03:42;;;;;;;136.32;25.98;;;;;;;3.65;100.00;98952.81;2600523;28;20385;-82
2022/11/14 00:04:58;;;;;;;189.23;28.90;;;;;;;3.66;100.00;98959.72;2599509;28;20103;-85
2022/11/14 00:06:14;;;;;;;68.72;22.15;;;;;;;3.67;100.00;98962.28;2600205;28;20048;-83
2022/11/14 00:07:31;;;;;;;53.25;21.88;;;;;;;3.71;100.00;98959.75;2601205;28;20084;-82
2022/11/14 00:08:46;;;;;;;77.07;23.02;;;;;;;3.74;100.00;98955.44;2599852;28;20053;-82
2022/11/14 00:10:03;;;;;;;91.25;23.42;;;;;;;3.65;100.00;98957.97;2598941;28;20982;-83
2022/11/14 00:11:18;;;;;;;167.43;28.55;;;;;;;3.73;100.00;98952.88;2601645;28;20049;-82
2022/11/14 00:12:34;;;;;;;158.98;26.40;;;;;;;3.73;100.00;98948.53;2599402;28;20054;-83
2022/11/14 00:13:49;;;;;;;137.20;25.52;;;;;;;3.63;100.00;98950.19;2602140;28;20076;-85
2022/11/14 00:15:05;;;;;;;106.50;24.42;;;;;;;3.44;100.00;98948.31;2600533;28;20045;-82
2022/11/14 00:16:21;;;;;;;205.75;32.33;;;;;;;3.70;100.00;98942.47;2599144;28;20144;-86
2022/11/14 00:17:37;;;;;;;109.65;24.90;;;;;;;3.43;100.00;98944.84;2598890;28;20663;-82
2022/11/14 00:18:53;;;;;;;176.20;29.00;;;;;;;3.55;100.00;98938.88;2599125;28;20072;-83
2022/11/14 00:20:10;;;;;;;126.82;29.40;;;;;;;3.47;100.00;98945.75;2599653;28;20064;-84
2022/11/14 00:21:26;;;;;;;191.48;31.27;;;;;;;3.46;100.00;98944.00;2611168;28;20057;-83
2022/11/14 00:22:42;;;;;;;101.18;25.45;;;;;;;3.49;100.00;98947.50;2605999;28;20060;-82
2022/11/14 00:23:57;;;;;;;170.63;31.08;;;;;;;3.50;100.00;98946.66;2599913;28;20060;-82
2022/11/14 00:25:13;;;;;;;230.07;31.83;;;;;;;3.48;100.00;98947.47;2602058;28;20052;-83
2022/11/14 00:26:29;;;;;;;73.28;26.42;;;;;;;3.57;100.00;98952.75;2599379;28;20045;-82
2022/11/14 00:27:44;;;;;;;152.10;29.30;;;;;;;3.69;100.00;98946.78;2602139;28;20084;-83
2022/11/14 00:29:00;;;;;;;186.13;25.98;;;;;;;3.65;100.00;98942.44;2599972;28;20435;-82
2022/11/14 00:30:15;;;;;;;142.43;25.42;;;;;;;3.42;100.00;98953.47;2599281;28;20526;-84
2022/11/14 00:31:31;;;;;;;191.57;31.20;;;;;;;3.63;100.00;98942.41;2598564;28;20434;-84
2022/11/14 00:32:47;;;;;;;204.07;31.38;;;;;;;3.61;100.00;98940.66;2600561;28;20077;-82
2022/11/14 00:34:03;;;;;;;154.88;25.75;;;;;;;3.40;100.00;98944.81;2601107;28;20045;-83
2022/11/14 00:35:19;;;;;;;174.05;30.45;;;;;;;3.38;100.00;98942.19;2599089;28;20410;-83
2022/11/14 00:36:35;;;;;;;134.55;27.98;;;;;;;3.38;100.00;98946.53;2600240;28;20041;-83
2022/11/14 00:37:51;;;;;;;144.98;28.50;;;;;;;3.55;100.00;98944.06;2600498;28;20108;-83
2022/11/14 00:39:11;;;;;;;100.88;24.75;;;;;;;3.39;100.00;98935.31;2601886;28;20048;-85
2022/11/14 00:40:26;;;;;;;108.18;25.65;;;;;;;3.33;100.00;98945.59;2601260;28;20053;-83
2022/11/14 00:41:42;;;;;;;85.88;24.25;;;;;;;3.37;100.00;98937.88;2601737;28;20107;-83
2022/11/14 00:42:58;;;;;;;136.82;26.35;;;;;;;3.40;100.00;98937.06;2601069;28;20053;-82
2022/11/14 00:44:13;;;;;;;153.35;25.63;;;;;;;3.29;100.00;98930.91;2600336;28;20051;-87
2022/11/14 00:45:29;;;;;;;100.75;21.02;;;;;;;3.36;100.00;98932.72;2601975;28;20056;-84
2022/11/14 00:46:44;;;;;;;44.33;20.73;;;;;;;3.43;100.00;98929.31;2603549;28;20057;-83
2022/11/14 00:48:00;;;;;;;168.05;25.15;;;;;;;3.31;100.00;98924.03;2603333;28;20557;-83
2022/11/14 00:49:16;;;;;;;142.30;24.80;;;;;;;3.27;100.00;98932.63;2603265;28;20049;-85
2022/11/14 00:50:31;;;;;;;150.13;25.67;;;;;;;3.21;100.00;98930.84;2602472;28;20052;-84
2022/11/14 00:51:47;;;;;;;81.13;22.27;;;;;;;3.29;100.00;98933.50;2600704;28;20061;-84
2022/11/14 00:53:03;;;;;;;165.73;25.80;;;;;;;3.30;100.00;98932.63;2602046;28;20045;-83
2022/11/14 00:54:18;;;;;;;78.90;22.42;;;;;;;3.27;100.00;98933.47;2602797;28;20052;-82
2022/11/14 00:55:34;;;;;;;79.90;23.52;;;;;;;3.30;100.00;98930.94;2601895;28;20602;-84
2022/11/14 00:56:49;;;;;;;128.05;26.20;;;;;;;3.21;100.00;98921.38;2600888;28;20136;-86
2022/11/14 00:58:05;;;;;;;140.30;24.75;;;;;;;3.27;100.00;98924.84;2603118;28;20087;-82
2022/11/14 00:59:21;;;;;;;124.18;23.73;;;;;;;3.25;100.00;98920.53;2601988;28;20055;-82
2022/11/14 01:00:37;;;;;;;107.78;22.80;;;;;;;3.15;100.00;98926.47;2601137;28;20186;-82
2022/11/14 01:01:52;;;;;;;143.23;24.40;;;;;;;3.07;100.00;98922.91;2600632;28;20071;-84
2022/11/14 01:03:08;;;;;;;103.63;22.70;;;;;;;3.18;100.00;98926.47;2601265;28;20049;-84
2022/11/14 01:04:24;;;;;;;115.90;24.60;;;;;;;3.20;100.00;98918.75;2602212;28;20046;-84
2022/11/14 01:05:48;;;;;;;123.60;26.30;;;;;;;3.24;100.00;98918.81;2602152;28;20046;-82
2022/11/14 01:07:04;;;;;;;65.35;22.02;;;;;;;3.39;100.00;98917.19;2600596;28;20058;-82
2022/11/14 01:08:20;;;;;;;131.50;25.50;;;;;;;3.39;100.00;98915.47;2603741;28;20564;-83
2022/11/14 01:09:35;;;;;;;146.63;27.02;;;;;;;3.47;100.00;98909.50;2602719;28;20287;-82
2022/11/14 01:10:51;;;;;;;64.10;21.02;;;;;;;3.39;100.00;98912.03;2601932;28;20476;-83
2022/11/14 01:12:06;;;;;;;72.97;21.83;;;;;;;3.39;100.00;98912.03;2601368;28;20431;-83
2022/11/14 01:13:22;;;;;;;67.13;21.30;;;;;;;3.30;100.00;98917.09;2600614;28;20049;-84
2022/11/14 01:14:39;;;;;;;116.05;23.00;;;;;;;3.19;100.00;98914.44;2601312;28;20053;-84
2022/11/14 01:15:59;;;;;;;158.50;26.63;;;;;;;3.28;100.00;98909.31;2603631;28;20045;-83
2022/11/14 01:17:15;;;;;;;51.20;20.77;;;;;;;3.28;100.00;98913.66;2600866;28;20444;-83
2022/11/14 01:18:31;;;;;;;75.70;21.02;;;;;;;3.03;100.00;98910.81;2600402;28;20057;-83
2022/11/14 01:19:46;;;;;;;82.00;24.60;;;;;;;2.75;100.00;98897.59;2601583;28;20079;-83
2022/11/14 01:21:10;;;;;;;151.43;26.25;;;;;;;2.78;100.00;98902.78;2600664;28;20056;-83
2022/11/14 01:22:26;;;;;;;137.95;26.70;;;;;;;2.72;100.00;98889.81;2600417;28;20071;-84
2022/11/14 01:23:42;;;;;;;96.25;24.98;;;;;;;2.69;100.00;98890.63;2601396;28;20115;-83
2022/11/14 01:24:57;;;;;;;127.82;27.20;;;;;;;2.79;100.00;98894.19;2602148;28;20048;-83
2022/11/14 01:26:14;;;;;;;82.65;24.63;;;;;;;2.91;100.00;98889.13;2602249;28;20052;-83
2022/11/14 01:27:30;;;;;;;147.13;26.40;;;;;;;3.07;100.00;98890.16;2600023;28;20086;-82
2022/11/14 01:28:46;;;;;;;74.63;23.55;;;;;;;3.05;100.00;98898.75;2601234;28;20593;-83
2022/11/14 01:30:02;;;;;;;91.38;24.85;;;;;;;3.13;100.00;98889.38;2603103;28;20478;-83
2022/11/14 01:31:20;;;;;;;193.35;32.75;;;;;;;3.23;100.00;98888.59;2600446;28;20054;-83
2022/11/14 01:32:36;;;;;;;84.45;22.65;;;;;;;2.87;100.00;98887.38;2602387;28;20100;-83
2022/11/14 01:33:53;;;;;;;111.70;23.65;;;;;;;2.85;100.00;98883.91;2600618;28;20080;-83
2022/11/14 01:35:08;;;;;;;57.83;20.48;;;;;;;2.83;100.00;98885.63;2600547;28;20057;-84
2022/11/14 01:36:24;;;;;;;123.40;24.67;;;;;;;2.80;100.00;98886.44;2600293;28;20050;-84
2022/11/14 01:37:39;;;;;;;85.25;21.63;;;;;;;2.87;100.00;98879.63;2603095;28;20080;-84
2022/11/14 01:38:55;;;;;;;85.30;22.60;;;;;;;2.85;100.00;98886.50;2602622;28;20140;-83
2022/11/14 01:40:11;;;;;;;77.45;23.27;;;;;;;2.85;100.00;98888.22;2601074;28;20054;-83
2022/11/14 01:41:27;;;;;;;69.63;22.48;;;;;;;2.79;100.00;98884.72;2601249;28;20495;-83
2022/11/14 01:43:17;;;;;;;56.75;22.58;;;;;;;2.65;100.00;98882.00;2601823;28;20048;-82
2022/11/14 01:44:45;;;;;;;80.75;21.88;;;;;;;2.73;100.00;98883.78;2601682;28;20539;-83
2022/11/14 01:46:09;;;;;;;57.90;19.90;;;;;;;2.44;100.00;98876.56;2603324;28;20052;-84
2022/11/14 01:47:29;;;;;;;54.53;21.27;;;;;;;2.33;100.00;98879.03;2602264;28;20123;-84
2022/11/14 01:49:02;;;;;;;62.20;21.73;;;;;;;2.43;100.00;98875.69;2602662;28;20084;-83
2022/11/14 01:50:18;;;;;;;95.13;24.17;;;;;;;2.68;100.00;98874.28;2600045;28;20051;-82
2022/11/14 01:51:40;;;;;;;72.38;22.90;;;;;;;2.65;100.00;98876.84;2601032;28;20073;-88
2022/11/14 01:52:55;;;;;;;55.60;20.90;;;;;;;2.71;100.00;98877.72;2603613;28;20800;-85
2022/11/14 01:54:19;;;;;;;83.13;22.58;;;;;;;2.86;100.00;98871.84;2601773;28;20092;-84
2022/11/14 01:55:35;;;;;;;45.00;18.05;;;;;;;2.82;100.00;98870.97;2602187;28;20140;-84
2022/11/14 01:56:57;;;;;;;52.45;18.52;;;;;;;2.87;100.00;98869.28;2601918;28;20495;-84
2022/11/14 01:58:14;;;;;;;46.25;19.02;;;;;;;2.80;100.00;98867.50;2601406;28;20156;-84
2022/11/14 01:59:34;;;;;;;187.10;25.65;;;;;;;2.95;100.00;98872.81;2602615;28;20053;-83
2022/11/14 02:00:50;;;;;;;172.57;27.15;;;;;;;2.99;100.00;98873.69;2599746;28;20087;-85
2022/11/14 02:02:12;;;;;;;105.15;21.75;;;;;;;2.93;100.00;98869.34;2600049;28;20519;-83
2022/11/14 02:03:27;;;;;;;78.43;20.23;;;;;;;2.50;100.00;98871.47;2603362;28;20949;-87
2022/11/14 02:04:47;;;;;;;104.10;21.83;;;;;;;2.43;100.00;98865.34;2602173;28;20095;-84
2022/11/14 02:06:05;;;;;;;161.32;25.33;;;;;;;2.64;100.00;98871.63;2601422;28;20137;-84
2022/11/14 02:07:24;;;;;;;175.02;26.45;;;;;;;2.62;100.00;98866.44;2603115;28;20514;-83
2022/11/14 02:08:40;;;;;;;144.57;24.40;;;;;;;2.65;100.00;98868.19;2599804;28;20080;-83
2022/11/14 02:09:58;;;;;;;117.50;21.88;;;;;;;2.71;100.00;98869.97;2600889;28;21029;-85
2022/11/14 02:11:14;;;;;;;57.75;20.05;;;;;;;2.77;100.00;98870.03;2600653;28;20068;-88
2022/11/14 02:12:30;;;;;;;111.60;23.98;;;;;;;2.71;100.00;98867.41;2601681;28;20045;-83
2022/11/14 02:13:45;;;;;;;207.70;28.42;;;;;;;2.72;100.00;98874.28;2602552;28;20045;-83
2022/11/14 02:15:01;;;;;;;93.50;21.95;;;;;;;2.70;100.00;98881.19;2601151;28;20503;-83
2022/11/14 02:16:17;;;;;;;224.48;30.00;;;;;;;2.81;100.00;98866.66;2600885;28;20127;-83
2022/11/14 02:17:33;;;;;;;53.30;21.83;;;;;;;2.86;100.00;98867.53;2600702;28;20543;-83
2022/11/14 02:18:48;;;;;;;234.25;26.98;;;;;;;2.76;100.00;98870.88;2599933;28;20048;-83
2022/11/14 02:20:10;;;;;;;152.48;23.42;;;;;;;2.76;100.00;98870.88;2600397;28;20482;-83
2022/11/14 02:21:26;;;;;;;217.45;28.40;;;;;;;2.81;100.00;98871.81;2602589;28;20079;-85
2022/11/14 02:22:41;;;;;;;149.02;24.23;;;;;;;2.83;100.00;98880.47;2602737;28;20049;-83
2022/11/14 02:23:57;;;;;;;235.60;30.52;;;;;;;3.00;100.00;98872.00;2601915;28;20102;-83
2022/11/14 02:25:16;;;;;;;194.70;23.15;;;;;;;2.89;100.00;98874.47;2599939;28;20457;-83
2022/11/14 02:26:32;;;;;;;192.98;24.52;;;;;;;3.00;100.00;98867.66;2600618;28;20058;-83
2022/11/14 02:27:49;;;;;;;236.30;26.90;;;;;;;2.95;100.00;98864.19;2600452;28;20052;-84
2022/11/14 02:29:07;;;;;;;78.63;22.75;;;;;;;3.05;100.00;98870.31;2601563;28;20542;-84
2022/11/14 02:30:22;;;;;;;42.72;20.17;;;;;;;3.27;100.00;98866.19;2602779;28;20154;-81
2022/11/14 02:31:38;;;;;;;180.93;28.88;;;;;;;3.35;100.00;98858.47;2600447;28;20231;-82
2022/11/14 02:32:54;;;;;;;77.55;21.38;;;;;;;3.34;100.00;98857.63;2600896;28;20128;-84
2022/11/14 02:34:09;;;;;;;85.65;21.42;;;;;;;3.39;100.00;98855.94;2599517;28;20053;-82
2022/11/14 02:35:25;;;;;;;108.80;23.17;;;;;;;3.29;100.00;98850.69;2601027;28;20073;-84
2022/11/14 02:36:41;;;;;;;122.45;21.98;;;;;;;3.17;100.00;98854.03;2602343;28;20458;-83
2022/11/14 02:37:56;;;;;;;105.70;22.05;;;;;;;3.03;100.00;98846.16;2599711;28;20052;-83
2022/11/14 02:39:12;;;;;;;92.72;23.85;;;;;;;3.11;100.00;98847.09;2599437;28;20053;-83
2022/11/14 02:40:27;;;;;;;97.88;23.83;;;;;;;2.81;100.00;98844.22;2599828;28;20116;-82
2022/11/14 02:41:43;;;;;;;202.05;29.45;;;;;;;3.06;100.00;98847.03;2601151;28;20559;-82
2022/11/14 02:42:59;;;;;;;73.03;23.42;;;;;;;3.19;100.00;98849.75;2601410;28;20396;-82
2022/11/14 02:44:14;;;;;;;70.10;22.63;;;;;;;3.37;100.00;98842.13;2601485;28;20045;-84
2022/11/14 02:45:30;;;;;;;93.53;21.98;;;;;;;3.31;100.00;98847.25;2600611;28;20136;-83
2022/11/14 02:46:46;;;;;;;118.32;23.48;;;;;;;3.23;100.00;98847.19;2601104;28;20150;-87
2022/11/14 02:48:01;;;;;;;48.20;20.88;;;;;;;3.40;100.00;98849.03;2600568;28;20057;-85
2022/11/14 02:49:17;;;;;;;54.22;21.60;;;;;;;3.47;100.00;98850.81;2600425;28;20054;-83
2022/11/14 02:50:32;;;;;;;72.90;22.08;;;;;;;2.97;100.00;98842.66;2599288;28;20046;-83
2022/11/14 02:51:48;;;;;;;52.63;20.77;;;;;;;2.43;100.00;98833.50;2600530;28;20076;-83
2022/11/14 02:53:04;;;;;;;80.70;23.48;;;;;;;2.61;100.00;98841.44;2600559;28;20052;-83
2022/11/14 02:54:20;;;;;;;55.75;23.08;;;;;;;2.99;100.00;98841.81;2601298;28;20079;-83
2022/11/14 02:55:35;;;;;;;86.38;21.95;;;;;;;3.10;100.00;98838.44;2601686;28;20092;-83
2022/11/14 02:56:51;;;;;;;66.10;21.00;;;;;;;3.14;100.00;98825.53;2600072;28;20325;-83
2022/11/14 02:58:06;;;;;;;94.75;21.73;;;;;;;3.04;100.00;98834.94;2600492;28;20052;-84
2022/11/14 02:59:22;;;;;;;67.45;21.70;;;;;;;2.61;100.00;98845.75;2600188;28;20096;-84
2022/11/14 03:00:37;;;;;;;65.68;21.05;;;;;;;2.91;100.00;98839.16;2599394;28;20077;-84
2022/11/14 03:01:53;;;;;;;61.75;21.60;;;;;;;2.83;100.00;98839.09;2601296;28;20160;-83
2022/11/14 03:03:09;;;;;;;86.38;22.13;;;;;;;2.76;100.00;98826.94;2601139;28;20585;-83
2022/11/14 03:04:25;;;;;;;59.97;20.48;;;;;;;2.60;100.00;98825.94;2600826;28;20087;-83
2022/11/14 03:05:40;;;;;;;95.65;23.10;;;;;;;2.77;100.00;98816.63;2601038;28;20059;-83
2022/11/14 03:06:56;;;;;;;92.32;24.38;;;;;;;2.83;100.00;98819.25;2600066;28;20068;-83
2022/11/14 03:08:11;;;;;;;64.38;19.73;;;;;;;2.83;100.00;98808.91;2601246;28;20049;-83
2022/11/14 03:09:27;;;;;;;55.78;20.88;;;;;;;2.89;100.00;98810.66;2600249;28;20068;-83
2022/11/14 03:10:42;;;;;;;81.55;19.15;;;;;;;2.98;100.00;98804.72;2600085;28;20629;-83
2022/11/14 03:11:58;;;;;;;50.78;19.08;;;;;;;3.02;100.00;98805.63;2600068;28;20102;-82
2022/11/14 03:13:14;;;;;;;45.78;18.38;;;;;;;3.10;100.00;98794.47;2600686;28;20506;-84
2022/11/14 03:14:30;;;;;;;77.13;20.70;;;;;;;3.05;100.00;98796.16;2601577;28;20049;-84
2022/11/14 03:15:46;;;;;;;84.18;20.50;;;;;;;3.12;100.00;98799.66;2600134;28;20045;-82
2022/11/14 03:17:02;;;;;;;53.67;19.00;;;;;;;3.23;100.00;98794.56;2601588;28;20060;-82
2022/11/14 03:18:17;;;;;;;70.90;20.63;;;;;;;3.29;100.00;98792.03;2599764;28;20045;-83
2022/11/14 03:19:33;;;;;;;51.88;20.10;;;;;;;3.34;100.00;98792.03;2599884;28;20458;-83
2022/11/14 03:20:48;;;;;;;43.30;19.45;;;;;;;3.36;100.00;98787.78;2601884;28;20522;-91
2022/11/14 03:22:04;;;;;;;62.08;19.33;;;;;;;3.34;100.00;98792.94;2599638;28;20489;-83
2022/11/14 03:23:20;;;;;;;102.55;20.42;;;;;;;3.31;100.00;98794.63;2601878;28;20077;-84
2022/11/14 03:24:35;;;;;;;73.05;19.63;;;;;;;3.11;100.00;98801.38;2610581;28;20606;-83
2022/11/14 03:25:51;;;;;;;108.28;21.48;;;;;;;3.21;100.00;98792.00;2605415;28;20532;-82
2022/11/14 03:27:06;;;;;;;76.70;20.65;;;;;;;3.44;100.00;98790.41;2598930;28;20069;-83
2022/11/14 03:28:22;;;;;;;58.30;19.88;;;;;;;3.36;100.00;98790.38;2600740;28;20394;-84
2022/11/14 03:29:38;;;;;;;98.43;20.52;;;;;;;3.45;100.00;98795.56;2599472;28;20496;-81
2022/11/14 03:30:53;;;;;;;99.93;21.08;;;;;;;3.30;100.00;98795.47;2601190;28;20475;-84
2022/11/14 03:32:09;;;;;;;92.55;19.92;;;;;;;2.98;100.00;98794.38;2599912;28;20077;-86
2022/11/14 03:33:25;;;;;;;114.75;20.42;;;;;;;3.05;100.00;98797.88;2601337;28;20045;-83
2022/11/14 03:34:41;;;;;;;73.07;20.00;;;;;;;3.08;100.00;98792.75;2599379;28;20084;-83
2022/11/14 03:35:56;;;;;;;102.60;20.80;;;;;;;3.31;100.00;98786.84;2599260;28;20085;-83
2022/11/14 03:37:12;;;;;;;101.15;20.90;;;;;;;3.38;100.00;98780.88;2600525;28;20474;-82
2022/11/14 03:38:28;;;;;;;41.08;18.60;;;;;;;3.40;100.00;98789.50;2599723;28;20049;-83
2022/11/14 03:39:44;;;;;;;53.72;19.00;;;;;;;3.39;100.00;98780.03;2600757;28;20131;-82
2022/11/14 03:41:00;;;;;;;72.72;19.52;;;;;;;3.11;100.00;98775.50;2600015;28;20044;-82
2022/11/14 03:42:16;;;;;;;86.68;21.50;;;;;;;3.24;100.00;98776.47;2600457;28;20053;-82
2022/11/14 03:43:33;;;;;;;42.25;18.70;;;;;;;3.32;100.00;98771.34;2601809;28;20056;-82
2022/11/14 03:44:48;;;;;;;63.97;19.02;;;;;;;3.34;100.00;98781.69;2600720;28;20111;-83
2022/11/14 03:46:04;;;;;;;93.60;19.40;;;;;;;3.01;100.00;98778.00;2600058;28;20107;-87
2022/11/14 03:47:20;;;;;;;76.88;19.48;;;;;;;3.10;100.00;98778.09;2599952;28;20053;-83
2022/11/14 03:48:35;;;;;;;44.28;17.92;;;;;;;3.25;100.00;98785.97;2599157;28;20096;-82
2022/11/14 03:49:51;;;;;;;61.90;18.55;;;;;;;3.29;100.00;98780.81;2600094;28;20403;-82
2022/11/14 03:51:06;;;;;;;82.38;20.27;;;;;;;3.13;100.00;98788.47;2601107;28;20416;-82
2022/11/14 03:52:22;;;;;;;119.78;21.33;;;;;;;3.26;100.00;98786.81;2599175;28;20088;-82
2022/11/14 03:53:37;;;;;;;108.70;19.27;;;;;;;3.27;100.00;98785.97;2602075;28;20056;-82
2022/11/14 03:54:53;;;;;;;80.20;18.52;;;;;;;3.34;100.00;98789.47;2601477;28;20411;-83
2022/11/14 03:56:08;;;;;;;82.45;19.45;;;;;;;3.49;100.00;98788.72;2598999;28;20114;-82
2022/11/14 03:57:24;;;;;;;63.40;18.60;;;;;;;3.08;100.00;98788.41;2601958;28;20072;-85
2022/11/14 03:58:40;;;;;;;79.40;18.35;;;;;;;2.91;100.00;98788.28;2598946;28;20417;-82
2022/11/14 03:59:55;;;;;;;85.75;18.98;;;;;;;2.91;100.00;98780.50;2601005;28;20114;-86
2022/11/14 04:01:11;;;;;;;72.70;17.85;;;;;;;2.97;100.00;98783.16;2599305;28;20057;-83
2022/11/14 04:02:27;;;;;;;68.35;17.27;;;;;;;2.87;100.00;98781.34;2599899;28;20136;-82
2022/11/14 04:03:42;;;;;;;64.78;16.83;;;;;;;3.01;100.00;98783.19;2599823;28;20487;-82
2022/11/14 04:04:58;;;;;;;47.60;16.38;;;;;;;2.96;100.00;98781.44;2599578;28;20389;-82
2022/11/14 04:06:14;;;;;;;44.70;16.33;;;;;;;2.83;100.00;98771.84;2601074;28;20041;-82
2022/11/14 04:07:30;;;;;;;46.65;16.33;;;;;;;3.04;100.00;98781.50;2601188;28;20069;-83
2022/11/14 04:08:45;;;;;;;67.70;16.15;;;;;;;2.83;100.00;98777.00;2599518;28;20061;-82
2022/11/14 04:10:01;;;;;;;41.15;14.52;;;;;;;2.86;100.00;98771.88;2599795;28;20060;-82
2022/11/14 04:11:16;;;;;;;31.08;14.88;;;;;;;3.05;100.00;98782.34;2600772;28;20076;-85
2022/11/14 04:12:32;;;;;;;54.25;16.10;;;;;;;3.04;100.00;98778.03;2601621;28;20127;-83
2022/11/14 04:13:48;;;;;;;102.55;17.50;;;;;;;3.15;100.00;98778.97;2600715;28;20046;-83
2022/11/14 04:15:04;;;;;;;71.93;16.88;;;;;;;3.12;100.00;98776.38;2601722;28;20049;-82
2022/11/14 04:16:19;;;;;;;79.07;17.38;;;;;;;3.03;100.00;98769.41;2601748;28;20045;-83
2022/11/14 04:17:35;;;;;;;78.13;16.38;;;;;;;3.07;100.00;98772.88;2598884;28;20057;-83
2022/11/14 04:18:50;;;;;;;86.00;16.92;;;;;;;3.05;100.00;98772.88;2600803;28;20049;-82
2022/11/14 04:20:06;;;;;;;37.38;14.55;;;;;;;3.13;100.00;98764.28;2603461;28;20103;-83
2022/11/14 04:21:22;;;;;;;41.55;14.43;;;;;;;2.96;100.00;98758.16;2603802;28;20057;-83
2022/11/14 04:22:39;;;;;;;61.72;16.67;;;;;;;2.87;100.00;98757.22;2602051;28;20140;-83
2022/11/14 04:23:54;;;;;;;41.47;16.67;;;;;;;2.96;100.00;98754.69;2601770;28;20613;-83
2022/11/14 04:25:10;;;;;;;44.88;15.85;;;;;;;2.85;100.00;98752.03;2612185;28;20110;-83
2022/11/14 04:26:25;;;;;;;53.47;16.77;;;;;;;2.71;100.00;98753.63;2609859;28;20053;-83
2022/11/14 04:27:42;;;;;;;50.75;16.40;;;;;;;2.62;100.00;98752.69;2603879;28;20882;-85
2022/11/14 04:28:57;;;;;;;56.35;14.00;;;;;;;2.64;100.00;98765.63;2602941;28;20128;-82
2022/11/14 04:30:13;;;;;;;60.25;14.57;;;;;;;2.59;100.00;98762.16;2603460;28;20080;-83
2022/11/14 04:31:28;;;;;;;78.38;15.18;;;;;;;2.61;100.00;98763.88;2601369;28;20060;-83
2022/11/14 04:32:46;;;;;;;65.68;13.88;;;;;;;2.45;100.00;98767.19;2602137;28;20051;-82
2022/11/14 04:34:02;;;;;;;65.78;13.82;;;;;;;2.23;100.00;98766.94;2601102;28;20049;-82
2022/11/14 04:35:18;;;;;;;80.63;16.55;;;;;;;2.36;100.00;98761.03;2601788;28;20041;-82
2022/11/14 04:36:33;;;;;;;73.60;14.30;;;;;;;2.58;100.00;98766.44;2602736;28;20046;-82
2022/11/14 04:37:49;;;;;;;62.33;14.05;;;;;;;2.34;100.00;98760.16;2603782;28;20202;-83
2022/11/14 04:39:04;;;;;;;81.22;13.73;;;;;;;2.49;100.00;98762.06;2601424;28;20098;-83
2022/11/14 04:40:20;;;;;;;56.40;13.60;;;;;;;2.62;100.00;98762.19;2602029;28;20050;-83
2022/11/14 04:41:35;;;;;;;96.00;14.52;;;;;;;2.63;100.00;98754.41;2603034;28;20049;-83
2022/11/14 04:42:51;;;;;;;94.38;17.73;;;;;;;2.66;100.00;98757.06;2602657;28;20407;-86
2022/11/14 04:44:07;;;;;;;74.95;16.63;;;;;;;2.52;100.00;98753.47;2602324;28;20053;-85
2022/11/14 04:45:22;;;;;;;57.78;16.77;;;;;;;2.26;100.00;98743.75;2602368;28;20045;-84
2022/11/14 04:46:38;;;;;;;84.22;16.63;;;;;;;2.21;100.00;98745.38;2600834;28;20124;-83
2022/11/14 04:47:54;;;;;;;66.35;17.35;;;;;;;2.44;100.00;98744.78;2599955;28;20118;-82
2022/11/14 04:49:09;;;;;;;116.38;20.00;;;;;;;2.52;100.00;98741.41;2603336;28;20061;-82
2022/11/14 04:50:25;;;;;;;127.00;18.52;;;;;;;2.51;100.00;98744.84;2602105;28;20045;-82
2022/11/14 04:51:40;;;;;;;118.72;17.83;;;;;;;2.16;100.00;98752.22;2601903;28;20135;-83
2022/11/14 04:52:56;;;;;;;141.82;20.08;;;;;;;2.37;100.00;98754.19;2602786;28;20045;-83
2022/11/14 04:54:12;;;;;;;46.17;15.55;;;;;;;2.36;100.00;98748.13;2601380;28;20053;-82
2022/11/14 04:55:27;;;;;;;121.90;17.33;;;;;;;2.48;100.00;98752.56;2602898;28;20116;-87
2022/11/14 04:56:43;;;;;;;93.00;16.83;;;;;;;2.67;100.00;98747.56;2600970;28;20476;-81
2022/11/14 04:57:59;;;;;;;105.30;17.30;;;;;;;2.46;100.00;98755.97;2606336;28;20103;-83
2022/11/14 04:59:14;;;;;;;104.38;16.40;;;;;;;2.49;100.00;98756.00;2604657;28;20045;-82
2022/11/14 05:00:30;;;;;;;88.40;13.25;;;;;;;2.72;100.00;98753.63;2600561;28;20045;-81
2022/11/14 05:01:45;;;;;;;111.85;15.80;;;;;;;2.54;100.00;98760.38;2602198;28;20110;-81
2022/11/14 05:03:01;;;;;;;91.55;14.30;;;;;;;2.72;100.00;98755.38;2601832;28;20049;-81
2022/11/14 05:04:17;;;;;;;53.15;13.70;;;;;;;2.37;100.00;98752.44;2602000;28;20055;-82
2022/11/14 05:05:32;;;;;;;79.55;15.63;;;;;;;2.21;100.00;98755.72;2601233;28;20057;-81
2022/11/14 05:06:48;;;;;;;168.55;19.88;;;;;;;2.33;100.00;98750.69;2600289;28;20729;-82
2022/11/14 05:08:04;;;;;;;164.05;18.35;;;;;;;2.26;100.00;98744.59;2609374;28;20229;-82
2022/11/14 05:09:19;;;;;;;126.40;19.75;;;;;;;2.37;100.00;98751.59;2607274;28;20046;-81
2022/11/14 05:10:35;;;;;;;104.65;16.30;;;;;;;2.41;100.00;98753.34;2602651;28;20083;-81
2022/11/14 05:11:50;;;;;;;119.47;16.52;;;;;;;2.46;100.00;98746.53;2599435;28;20512;-83
2022/11/14 05:13:06;;;;;;;49.72;14.85;;;;;;;2.36;100.00;98750.72;2601345;28;20487;-83
2022/11/14 05:14:22;;;;;;;84.68;15.50;;;;;;;2.13;100.00;98752.22;2600802;28;20114;-81
2022/11/14 05:15:37;;;;;;;63.10;14.80;;;;;;;2.10;100.00;98742.69;2603219;28;20049;-82
2022/11/14 05:16:53;;;;;;;62.53;17.02;;;;;;;1.98;100.00;98748.59;2602574;28;20114;-83
2022/11/14 05:18:09;;;;;;;138.18;21.60;;;;;;;2.22;100.00;98742.84;2603152;28;20687;-84
2022/11/14 05:19:24;;;;;;;113.88;17.13;;;;;;;2.22;100.00;98744.53;2602098;28;20049;-81
2022/11/14 05:20:40;;;;;;;93.75;19.25;;;;;;;2.49;100.00;98746.56;2601438;28;20053;-87
2022/11/14 05:21:55;;;;;;;184.43;22.42;;;;;;;2.58;100.00;98735.44;2602868;28;20474;-83
2022/11/14 05:23:20;;;;;;;107.93;18.23;;;;;;;2.46;100.00;98745.66;2600933;28;20052;-83
2022/11/14 05:24:35;;;;;;;152.50;18.80;;;;;;;2.22;100.00;98744.53;2601120;28;20140;-84
2022/11/14 05:26:02;;;;;;;90.43;15.32;;;;;;;2.21;100.00;98755.72;2601750;28;20045;-83
2022/11/14 05:27:17;;;;;;;112.53;16.60;;;;;;;2.31;100.00;98751.53;2601644;28;20050;-81
2022/11/14 05:28:33;;;;;;;52.45;14.32;;;;;;;2.49;100.00;98762.06;2602209;28;20052;-83
2022/11/14 05:29:49;;;;;;;36.60;13.38;;;;;;;2.72;100.00;98752.78;2601918;28;20045;-82
2022/11/14 05:31:07;;;;;;;156.80;18.88;;;;;;;2.81;100.00;98752.88;2601455;28;20049;-85
2022/11/14 05:32:23;;;;;;;65.85;15.98;;;;;;;2.64;100.00;98763.91;2602667;28;20463;-83
2022/11/14 05:33:39;;;;;;;82.97;16.77;;;;;;;2.62;100.00;98762.19;2601538;28;20136;-83
2022/11/14 05:34:55;;;;;;;72.72;14.70;;;;;;;2.39;100.00;98765.38;2601417;28;20053;-83
2022/11/14 05:36:12;;;;;;;54.80;13.52;;;;;;;2.32;100.00;98769.63;2601872;28;20056;-83
2022/11/14 05:37:28;;;;;;;39.47;12.85;;;;;;;2.28;100.00;98767.88;2599260;28;20057;-83
2022/11/14 05:38:44;;;;;;;110.68;15.90;;;;;;;2.51;100.00;98762.94;2601070;28;20136;-81
2022/11/14 05:39:59;;;;;;;66.18;13.05;;;;;;;2.52;100.00;98758.66;2601492;28;20102;-81
2022/11/14 05:41:16;;;;;;;48.20;12.00;;;;;;;2.04;100.00;98753.81;2599600;28;20041;-81
2022/11/14 05:42:32;;;;;;;29.73;12.40;;;;;;;2.08;100.00;98753.00;2600569;28;20472;-87
2022/11/14 05:43:48;;;;;;;38.70;12.77;;;;;;;1.86;100.00;98751.03;2602326;28;20057;-82
2022/11/14 05:45:04;;;;;;;40.72;15.50;;;;;;;2.18;100.00;98748.81;2601810;28;20049;-81
2022/11/14 05:46:19;;;;;;;37.13;14.23;;;;;;;2.35;100.00;98751.56;2602515;28;20048;-81
2022/11/14 05:47:35;;;;;;;49.60;14.63;;;;;;;2.39;100.00;98765.38;2600789;28;20063;-81
2022/11/14 05:48:51;;;;;;;40.33;14.27;;;;;;;2.32;100.00;98763.63;2601296;28;20128;-83
2022/11/14 05:50:06;;;;;;;53.67;15.00;;;;;;;2.35;100.00;98758.47;2602457;28;20059;-83